Time;durP1;ratioP1;P1;durP2;ratioP2;P2;SDS_P1;SDS_P2;PMS_P1;PMS_P2;Temp;Humidity;BMP_temperature;BMP_pressure;BME280_temperature;BME280_humidity;BME280_pressure;Samples;Min_cycle;Max_cycle;Signal;HPM_P1;HPM_P2
2023/03/17 00:02:20;;;;;;;6.30;5.37;;;;;;;5.69;79.68;152822.03;5068653;28;20955;-85
2023/03/17 00:04:46;;;;;;;6.30;5.70;;;;;;;5.68;78.98;152819.44;5056530;28;20438;-85
2023/03/17 00:07:15;;;;;;;7.73;5.67;;;;;;;5.67;79.72;152818.16;5072183;28;20454;-85
2023/03/17 00:09:41;;;;;;;5.37;4.83;;;;;;;5.66;79.42;152815.59;5080899;28;20630;-85
2023/03/17 00:12:11;;;;;;;10.40;6.10;;;;;;;5.66;79.65;152814.28;5077261;28;20458;-85
2023/03/17 00:14:38;;;;;;;6.60;5.43;;;;;;;5.67;79.96;152818.16;5039673;28;20507;-85
2023/03/17 00:17:05;;;;;;;7.23;5.23;;;;;;;5.68;79.06;152820.75;5063859;28;20454;-85
2023/03/17 00:19:34;;;;;;;7.67;5.27;;;;;;;5.71;78.89;152828.47;5055974;28;20442;-85
2023/03/17 00:22:01;;;;;;;7.23;5.70;;;;;;;5.74;79.67;152836.22;5039881;28;20442;-86
2023/03/17 00:24:28;;;;;;;6.00;5.20;;;;;;;5.73;79.56;152833.63;5073257;28;20959;-85
2023/03/17 00:26:55;;;;;;;6.20;5.00;;;;;;;5.71;79.08;152828.47;5077567;28;20477;-85
2023/03/17 00:29:24;;;;;;;6.50;5.67;;;;;;;5.69;80.21;152823.34;5046433;28;20476;-85
2023/03/17 00:31:51;;;;;;;6.70;5.47;;;;;;;5.68;80.67;152820.75;5049899;28;20445;-85
2023/03/17 00:34:21;;;;;;;7.90;5.40;;;;;;;5.69;80.19;152822.03;5041912;28;20454;-85
2023/03/17 00:36:49;;;;;;;7.23;5.67;;;;;;;5.67;79.72;152818.16;5088805;28;20450;-85
2023/03/17 00:39:17;;;;;;;7.00;5.83;;;;;;;5.73;80.26;152833.63;5088833;28;20454;-85
2023/03/17 00:41:44;;;;;;;6.20;5.57;;;;;;;5.68;80.06;152820.75;5078523;28;20448;-85
2023/03/17 00:44:11;;;;;;;6.70;6.00;;;;;;;5.67;80.42;152818.16;5045422;28;20940;-85
2023/03/17 00:46:40;;;;;;;7.10;5.30;;;;;;;5.71;80.51;152827.19;5078298;28;20946;-85
2023/03/17 00:49:14;;;;;;;8.53;5.50;;;;;;;5.68;81.24;152819.44;5049203;28;21015;-85
2023/03/17 00:51:41;;;;;;;5.73;4.90;;;;;;;5.66;82.04;152815.59;5080328;28;20449;-85
2023/03/17 00:54:10;;;;;;;7.43;4.77;;;;;;;5.65;81.19;152813.00;5040733;28;20454;-85
2023/03/17 00:56:37;;;;;;;9.33;5.90;;;;;;;5.68;81.58;152819.44;5074234;28;20457;-85
2023/03/17 00:59:04;;;;;;;5.87;5.30;;;;;;;5.68;80.14;152819.44;5064171;28;20462;-85
2023/03/17 01:01:31;;;;;;;6.27;5.23;;;;;;;5.71;80.22;152828.47;5042525;28;20930;-85
2023/03/17 01:04:01;;;;;;;7.13;5.83;;;;;;;5.69;81.30;152823.34;5038742;28;20485;-85
2023/03/17 01:06:28;;;;;;;7.33;5.00;;;;;;;5.72;82.00;152829.78;5054174;28;20538;-85
2023/03/17 01:08:56;;;;;;;7.80;6.20;;;;;;;5.70;86.01;152824.59;5052644;28;20479;-85
2023/03/17 01:11:25;;;;;;;7.30;6.20;;;;;;;5.64;85.85;152810.41;5033931;28;20825;-85
2023/03/17 01:13:51;;;;;;;7.20;6.27;;;;;;;5.59;84.14;152797.50;5052066;28;20450;-85
2023/03/17 01:16:18;;;;;;;6.73;6.00;;;;;;;5.56;84.27;152789.75;5054599;28;20448;-85
2023/03/17 01:18:45;;;;;;;6.93;5.50;;;;;;;5.53;85.64;152782.06;5058454;28;20509;-85
2023/03/17 01:21:13;;;;;;;7.77;6.63;;;;;;;5.51;85.77;152776.88;5037498;28;20532;-85
2023/03/17 01:23:39;;;;;;;6.30;5.70;;;;;;;5.49;87.26;152771.72;5064294;28;20896;-85
2023/03/17 01:26:06;;;;;;;7.70;6.67;;;;;;;5.46;90.65;152764.00;5073220;28;20516;-86
2023/03/17 01:28:33;;;;;;;7.93;6.50;;;;;;;5.43;90.98;152757.53;5060460;28;20513;-86
2023/03/17 01:31:01;;;;;;;6.23;5.63;;;;;;;5.38;90.85;152743.34;5045794;28;20494;-85
2023/03/17 01:33:28;;;;;;;11.17;7.00;;;;;;;5.33;91.46;152731.78;5069898;28;20990;-85
2023/03/17 01:35:56;;;;;;;6.80;5.90;;;;;;;5.30;92.91;152724.03;5075511;28;20451;-85
2023/03/17 01:38:25;;;;;;;7.80;7.00;;;;;;;5.28;92.72;152717.59;5050221;28;20447;-85
2023/03/17 01:40:52;;;;;;;7.83;7.03;;;;;;;5.22;91.66;152702.09;5037424;28;20447;-85
2023/03/17 01:43:21;;;;;;;8.23;6.80;;;;;;;5.22;92.71;152703.41;5056108;28;20528;-85
2023/03/17 01:46:15;;;;;;;6.87;5.93;;;;;;;5.17;90.94;152690.50;5036273;28;20559;-85
2023/03/17 01:48:43;;;;;;;7.47;6.50;;;;;;;5.18;92.93;152691.81;5037561;28;20471;-85
2023/03/17 01:51:13;;;;;;;7.83;6.73;;;;;;;5.17;93.36;152690.50;5060724;28;20509;-85
2023/03/17 01:53:42;;;;;;;7.00;6.30;;;;;;;5.15;91.77;152684.06;5070514;28;20438;-85
2023/03/17 01:56:08;;;;;;;8.43;6.40;;;;;;;5.14;90.87;152682.78;5050810;28;20483;-85
2023/03/17 01:58:36;;;;;;;6.13;5.40;;;;;;;5.16;91.52;152686.66;5046814;28;20439;-85
2023/03/17 02:01:02;;;;;;;8.10;7.20;;;;;;;5.16;91.39;152686.66;5048418;28;20486;-85
2023/03/17 02:03:29;;;;;;;8.83;6.40;;;;;;;5.17;90.07;152689.22;5051347;28;20805;-78
2023/03/17 02:05:57;;;;;;;10.03;6.90;;;;;;;5.20;87.85;152696.94;5074184;28;20965;-78
2023/03/17 02:08:25;;;;;;;6.33;5.73;;;;;;;5.25;87.39;152709.84;5051290;28;20442;-78
2023/03/17 02:10:56;;;;;;;8.10;6.00;;;;;;;5.27;86.62;152715.03;5040265;28;20502;-78
2023/03/17 02:13:23;;;;;;;7.47;6.13;;;;;;;5.29;88.02;152720.19;5079157;28;20443;-78
2023/03/17 02:15:53;;;;;;;8.07;6.83;;;;;;;5.31;91.21;152725.31;5043031;28;20447;-78
2023/03/17 02:18:22;;;;;;;7.40;6.60;;;;;;;5.26;91.45;152712.44;5067868;28;20439;-78
2023/03/17 02:21:31;;;;;;;10.30;6.93;;;;;;;5.25;91.38;152711.13;5067691;28;20444;-77
2023/03/17 02:24:00;;;;;;;6.40;5.43;;;;;;;5.24;92.57;152707.28;5069811;28;21171;-77
2023/03/17 02:26:28;;;;;;;11.40;6.80;;;;;;;5.20;93.39;152696.94;5076817;28;20476;-77
2023/03/17 02:28:55;;;;;;;8.50;6.83;;;;;;;5.12;91.82;152677.63;5077499;28;20951;-77
2023/03/17 02:31:24;;;;;;;7.50;6.37;;;;;;;5.07;90.93;152664.75;5071834;28;20453;-77
2023/03/17 02:33:52;;;;;;;7.97;6.60;;;;;;;5.05;89.80;152659.59;5058334;28;20948;-77
2023/03/17 02:36:21;;;;;;;7.50;6.70;;;;;;;5.05;91.27;152659.59;5058714;28;20435;-77
2023/03/17 02:38:50;;;;;;;9.33;7.00;;;;;;;5.03;91.32;152654.41;5073621;28;20799;-77
2023/03/17 02:41:17;;;;;;;9.77;6.93;;;;;;;4.99;90.87;152644.13;5041813;28;20825;-77
2023/03/17 02:43:43;;;;;;;6.33;5.50;;;;;;;4.99;91.51;152642.81;5049528;28;20536;-77
2023/03/17 02:46:10;;;;;;;9.50;6.07;;;;;;;4.95;91.38;152633.78;5068410;28;20426;-77
2023/03/17 02:48:37;;;;;;;7.97;6.30;;;;;;;4.95;92.32;152632.53;5040009;28;20494;-77
2023/03/17 02:51:04;;;;;;;7.30;6.33;;;;;;;4.91;92.12;152623.50;5067135;28;20466;-77
2023/03/17 02:53:31;;;;;;;6.87;6.13;;;;;;;4.90;92.54;152620.91;5070953;28;20477;-77
2023/03/17 02:55:59;;;;;;;7.83;6.47;;;;;;;4.84;92.64;152606.72;5079019;28;20441;-77
2023/03/17 02:58:26;;;;;;;7.40;6.13;;;;;;;4.85;93.16;152609.31;5064427;28;20447;-77
2023/03/17 03:00:53;;;;;;;7.00;6.30;;;;;;;4.85;92.69;152608.03;5066376;28;20483;-77
2023/03/17 03:03:20;;;;;;;6.97;6.10;;;;;;;4.86;89.93;152610.63;5074909;28;20458;-77
2023/03/17 03:05:47;;;;;;;9.67;6.17;;;;;;;4.90;88.38;152622.19;5069644;28;20460;-77
2023/03/17 03:08:13;;;;;;;7.40;6.13;;;;;;;5.00;89.76;152645.41;5067103;28;20460;-76
2023/03/17 03:10:40;;;;;;;7.07;5.70;;;;;;;5.01;88.96;152649.25;5076269;28;20486;-77
2023/03/17 03:13:08;;;;;;;5.30;4.77;;;;;;;5.05;91.13;152658.31;5066260;28;20469;-78
2023/03/17 03:15:36;;;;;;;6.83;5.53;;;;;;;5.00;91.26;152645.41;5069279;28;20456;-77
2023/03/17 03:18:03;;;;;;;7.50;6.23;;;;;;;4.98;91.00;152640.28;5069680;28;20533;-77
2023/03/17 03:20:29;;;;;;;6.40;5.30;;;;;;;4.97;91.18;152637.69;5067154;28;20483;-77
2023/03/17 03:22:56;;;;;;;7.87;5.97;;;;;;;4.97;91.48;152637.69;5074218;28;20963;-76
2023/03/17 03:25:23;;;;;;;6.93;5.80;;;;;;;4.98;92.68;152640.28;5064813;28;20543;-79
2023/03/17 03:27:49;;;;;;;7.03;6.30;;;;;;;4.96;92.98;152635.06;5070590;28;20449;-76
2023/03/17 03:30:18;;;;;;;7.30;5.97;;;;;;;4.97;93.89;152638.97;5055659;28;21023;-78
2023/03/17 03:32:46;;;;;;;7.00;5.53;;;;;;;4.95;94.15;152632.53;5068274;28;20493;-78
2023/03/17 03:35:12;;;;;;;8.23;6.53;;;;;;;4.91;93.54;152624.78;5070243;28;20462;-78
2023/03/17 03:37:39;;;;;;;7.20;6.50;;;;;;;4.87;93.17;152614.47;5070490;28;20534;-78
2023/03/17 03:40:07;;;;;;;9.90;6.83;;;;;;;4.86;93.80;152611.91;5078937;28;20446;-79
2023/03/17 03:42:34;;;;;;;7.60;6.53;;;;;;;4.82;92.40;152601.56;5054957;28;20462;-78
2023/03/17 03:45:01;;;;;;;7.90;6.73;;;;;;;4.79;91.48;152593.84;5079019;28;20481;-78
2023/03/17 03:47:29;;;;;;;6.27;5.60;;;;;;;4.76;90.96;152584.84;5071794;28;20463;-86
2023/03/17 03:49:56;;;;;;;7.47;6.63;;;;;;;4.76;91.67;152586.16;5078022;28;20481;-86
2023/03/17 03:52:23;;;;;;;7.30;6.00;;;;;;;4.75;91.61;152583.56;5059246;28;20445;-86
2023/03/17 03:54:49;;;;;;;6.70;6.03;;;;;;;4.73;91.47;152578.41;5073845;28;20451;-86
2023/03/17 03:57:16;;;;;;;7.33;6.30;;;;;;;4.73;92.10;152578.41;5054614;28;20430;-86
2023/03/17 03:59:43;;;;;;;7.83;6.43;;;;;;;4.72;93.36;152575.81;5085815;28;20831;-86
2023/03/17 04:02:10;;;;;;;8.20;6.63;;;;;;;4.70;93.89;152570.66;5063416;28;20456;-85
2023/03/17 04:04:38;;;;;;;9.40;6.30;;;;;;;4.66;91.65;152560.34;5083507;28;20535;-86
2023/03/17 04:07:06;;;;;;;8.83;6.03;;;;;;;4.67;93.10;152562.94;5079089;28;20499;-86
2023/03/17 04:09:33;;;;;;;8.97;6.37;;;;;;;4.68;93.22;152564.22;5047752;28;20481;-85
2023/03/17 04:12:00;;;;;;;8.80;7.30;;;;;;;4.66;92.74;152560.34;5072310;28;20556;-86
2023/03/17 04:14:27;;;;;;;8.43;6.60;;;;;;;4.65;92.26;152557.78;5074516;28;20446;-85
2023/03/17 04:16:54;;;;;;;6.60;5.90;;;;;;;4.62;92.61;152550.06;5081629;28;20450;-85
2023/03/17 04:19:21;;;;;;;7.37;6.33;;;;;;;4.58;93.13;152539.72;5037986;28;20486;-85
2023/03/17 04:21:49;;;;;;;7.63;6.30;;;;;;;4.60;93.62;152544.91;5048048;28;20430;-86
2023/03/17 04:24:16;;;;;;;8.33;7.00;;;;;;;4.56;93.21;152534.59;5089681;28;20450;-85
2023/03/17 04:26:43;;;;;;;8.17;6.10;;;;;;;4.58;94.77;152539.72;5069809;28;20535;-85
2023/03/17 04:29:14;;;;;;;7.50;6.00;;;;;;;4.53;94.57;152525.53;5075977;28;20454;-86
2023/03/17 04:31:41;;;;;;;7.90;6.57;;;;;;;4.48;94.23;152512.66;5067320;28;20864;-85
2023/03/17 04:34:11;;;;;;;7.30;6.27;;;;;;;4.44;94.05;152503.69;5069822;28;20454;-86
2023/03/17 04:36:38;;;;;;;10.40;7.37;;;;;;;4.44;95.74;152503.69;5063656;28;20441;-86
2023/03/17 04:39:06;;;;;;;6.10;5.50;;;;;;;4.42;94.89;152498.50;5077184;28;20461;-85
2023/03/17 04:41:33;;;;;;;9.30;5.90;;;;;;;4.38;93.52;152488.22;5052555;28;20526;-86
2023/03/17 04:43:59;;;;;;;8.03;6.23;;;;;;;4.39;95.51;152490.81;5065441;28;20477;-85
2023/03/17 04:46:26;;;;;;;7.83;7.03;;;;;;;4.36;95.21;152483.06;5083663;28;20502;-85
2023/03/17 04:48:53;;;;;;;6.97;6.07;;;;;;;4.38;96.97;152486.91;5083474;28;20484;-86
2023/03/17 04:51:20;;;;;;;7.47;6.23;;;;;;;4.35;96.17;152479.19;5056349;28;20548;-85
2023/03/17 04:53:47;;;;;;;7.50;5.83;;;;;;;4.33;97.19;152475.34;5061240;28;20453;-85
2023/03/17 04:56:16;;;;;;;7.73;6.60;;;;;;;4.30;97.27;152468.91;5070555;28;20458;-85
2023/03/17 04:58:43;;;;;;;8.47;6.80;;;;;;;4.30;96.67;152467.59;5069180;28;20439;-85
2023/03/17 05:01:09;;;;;;;6.73;6.03;;;;;;;4.30;97.04;152468.91;5055753;28;20482;-85
2023/03/17 05:03:36;;;;;;;7.70;6.90;;;;;;;4.27;97.10;152459.88;5064671;28;20446;-85
2023/03/17 05:06:04;;;;;;;8.50;6.73;;;;;;;4.26;97.29;152458.56;5072095;28;20446;-86
2023/03/17 05:08:31;;;;;;;8.80;6.67;;;;;;;4.23;97.30;152450.88;5074198;28;20439;-85
2023/03/17 05:10:59;;;;;;;8.40;6.73;;;;;;;4.22;97.94;152448.28;5065935;28;20562;-85
2023/03/17 05:13:27;;;;;;;7.37;6.17;;;;;;;4.21;98.28;152444.41;5084048;28;20539;-85
2023/03/17 05:15:55;;;;;;;8.40;6.67;;;;;;;4.20;99.24;152441.84;5078648;28;20477;-86
2023/03/17 05:18:24;;;;;;;10.43;7.07;;;;;;;4.15;98.99;152428.97;5073558;28;20496;-85
2023/03/17 05:20:51;;;;;;;7.23;6.00;;;;;;;4.11;99.09;152418.66;5081550;28;20455;-85
2023/03/17 05:23:19;;;;;;;8.73;6.90;;;;;;;4.05;98.05;152404.47;5062450;28;20848;-85
2023/03/17 05:25:47;;;;;;;8.23;6.70;;;;;;;4.02;98.18;152395.50;5054399;28;20459;-85
2023/03/17 05:28:14;;;;;;;7.73;6.80;;;;;;;4.01;98.33;152392.91;5068075;28;20507;-85
2023/03/17 05:30:42;;;;;;;7.43;6.43;;;;;;;3.94;98.25;152376.19;5064212;28;20477;-85
2023/03/17 05:33:09;;;;;;;9.90;7.50;;;;;;;3.93;98.47;152373.59;5082221;28;20977;-85
2023/03/17 05:35:36;;;;;;;9.50;6.60;;;;;;;3.92;98.32;152369.75;5054762;28;20485;-85
2023/03/17 05:38:03;;;;;;;7.60;6.80;;;;;;;3.89;98.31;152362.00;5088673;28;20486;-85
2023/03/17 05:40:29;;;;;;;9.20;7.10;;;;;;;3.83;97.79;152347.84;5051291;28;20448;-85
2023/03/17 05:42:56;;;;;;;8.53;7.37;;;;;;;3.84;97.41;152349.16;5073544;28;20439;-85
2023/03/17 05:45:23;;;;;;;8.13;7.20;;;;;;;3.86;99.21;152354.28;5058682;28;20445;-85
2023/03/17 05:47:51;;;;;;;7.70;6.47;;;;;;;3.82;99.47;152345.25;5041555;28;20533;-85
2023/03/17 05:50:18;;;;;;;8.00;6.10;;;;;;;3.80;98.92;152338.81;5041653;28;20473;-85
2023/03/17 05:52:46;;;;;;;7.60;6.80;;;;;;;3.84;99.55;152350.41;5084183;28;20492;-86
2023/03/17 05:55:13;;;;;;;10.80;6.43;;;;;;;3.83;98.05;152347.84;5074763;28;20449;-85
2023/03/17 05:57:40;;;;;;;7.03;5.93;;;;;;;3.89;99.31;152362.00;5036702;28;20572;-85
2023/03/17 06:00:08;;;;;;;9.53;6.60;;;;;;;3.89;97.35;152362.00;5037300;28;21072;-85
2023/03/17 06:02:35;;;;;;;6.73;5.50;;;;;;;3.94;97.19;152376.19;5051736;28;20443;-86
2023/03/17 06:05:03;;;;;;;5.97;5.20;;;;;;;4.01;97.00;152392.91;5065405;28;20455;-86
2023/03/17 06:07:30;;;;;;;8.23;5.70;;;;;;;4.07;97.19;152408.38;5057980;28;20455;-85
2023/03/17 06:09:57;;;;;;;7.37;5.33;;;;;;;4.15;98.23;152430.28;5059022;28;20589;-85
2023/03/17 06:12:25;;;;;;;6.10;5.40;;;;;;;4.18;96.52;152436.72;5057433;28;20534;-85
2023/03/17 06:14:51;;;;;;;5.20;4.50;;;;;;;4.29;96.93;152465.00;5060558;28;20991;-86
2023/03/17 06:17:18;;;;;;;5.17;4.60;;;;;;;4.36;97.04;152481.78;5057579;28;20745;-86
2023/03/17 06:19:45;;;;;;;5.90;5.03;;;;;;;4.46;97.06;152508.81;5055618;28;20446;-86
2023/03/17 06:22:14;;;;;;;7.23;5.13;;;;;;;4.57;98.76;152537.19;5056681;28;20454;-86
2023/03/17 06:24:40;;;;;;;5.10;4.03;;;;;;;4.67;96.62;152562.94;5058336;28;20938;-86
2023/03/17 06:27:09;;;;;;;4.43;4.00;;;;;;;4.80;97.03;152595.13;5056704;28;20446;-86
2023/03/17 06:29:36;;;;;;;8.13;4.03;;;;;;;4.92;94.44;152627.34;5065211;28;20457;-86
2023/03/17 06:32:03;;;;;;;5.80;4.30;;;;;;;5.07;95.46;152664.75;5062882;28;20528;-87
2023/03/17 06:34:31;;;;;;;5.27;4.47;;;;;;;5.18;96.75;152691.81;5041321;28;20451;-86
2023/03/17 06:36:58;;;;;;;8.00;6.13;;;;;;;5.23;94.78;152704.69;5042064;28;20434;-86
2023/03/17 06:39:26;;;;;;;8.57;6.40;;;;;;;5.34;92.74;152734.38;5057342;28;20450;-86
2023/03/17 06:41:53;;;;;;;6.00;5.30;;;;;;;5.48;91.13;152769.19;5057658;28;20483;-86
2023/03/17 06:44:20;;;;;;;6.60;4.60;;;;;;;5.66;90.33;152814.28;5060060;28;21020;-86
2023/03/17 06:46:47;;;;;;;4.60;3.70;;;;;;;5.99;90.06;152900.75;5057541;28;20478;-86
2023/03/17 06:49:13;;;;;;;6.80;4.03;;;;;;;6.33;88.93;152985.91;5055763;28;20491;-86
2023/03/17 06:51:40;;;;;;;4.53;3.77;;;;;;;6.70;85.35;153082.66;5058527;28;20475;-86
2023/03/17 06:54:07;;;;;;;4.50;3.67;;;;;;;7.12;82.90;153189.81;5058458;28;20494;-86
2023/03/17 06:56:36;;;;;;;3.93;3.30;;;;;;;7.50;80.82;153285.38;5057061;28;20831;-84
2023/03/17 06:59:03;;;;;;;4.57;3.20;;;;;;;7.84;80.67;153373.19;5057835;28;20804;-84
2023/03/17 07:01:31;;;;;;;6.77;3.33;;;;;;;8.14;77.20;153450.75;5058204;28;20798;-84
2023/03/17 07:03:58;;;;;;;4.57;3.40;;;;;;;8.39;74.88;153515.38;5055616;28;20902;-84
2023/03/17 07:06:25;;;;;;;4.13;3.37;;;;;;;8.54;73.80;153554.19;5038079;28;20439;-85
2023/03/17 07:08:52;;;;;;;7.80;3.80;;;;;;;8.66;72.75;153582.66;5038843;28;20487;-85
2023/03/17 07:11:18;;;;;;;3.73;2.90;;;;;;;8.72;74.19;153598.13;5029765;28;20464;-85
2023/03/17 07:13:46;;;;;;;4.53;3.50;;;;;;;8.81;70.76;153622.72;5036795;28;20536;-86
2023/03/17 07:16:15;;;;;;;3.90;3.50;;;;;;;8.94;73.56;153655.03;5021947;28;20515;-85
2023/03/17 07:18:42;;;;;;;4.50;3.70;;;;;;;9.09;68.55;153693.81;5037026;28;20444;-85
2023/03/17 07:21:09;;;;;;;4.27;3.57;;;;;;;9.27;69.41;153740.38;5037120;28;20592;-85
2023/03/17 07:23:36;;;;;;;5.00;3.90;;;;;;;9.43;69.04;153781.75;5036645;28;20995;-85
2023/03/17 07:26:03;;;;;;;5.00;3.80;;;;;;;9.48;67.38;153794.69;5020166;28;20568;-86
2023/03/17 07:28:30;;;;;;;3.97;3.57;;;;;;;9.45;68.12;153785.69;5023426;28;20455;-85
2023/03/17 07:30:59;;;;;;;8.00;4.70;;;;;;;9.22;71.80;153727.44;5007260;28;20555;-85
2023/03/17 07:33:26;;;;;;;5.90;4.67;;;;;;;9.08;70.30;153691.25;5039916;28;20809;-86
2023/03/17 07:35:52;;;;;;;4.77;3.70;;;;;;;9.09;72.16;153695.13;5039006;28;20527;-86
2023/03/17 07:38:20;;;;;;;5.20;3.90;;;;;;;9.12;70.14;153702.88;5021971;28;20440;-86
2023/03/17 07:40:47;;;;;;;6.33;3.67;;;;;;;9.14;69.45;153706.75;5038581;28;20522;-85
2023/03/17 07:43:15;;;;;;;6.07;3.47;;;;;;;9.16;71.20;153713.22;5022729;28;20455;-86
2023/03/17 07:45:42;;;;;;;4.10;3.30;;;;;;;9.23;67.83;153730.03;5018163;28;20556;-86
2023/03/17 07:48:10;;;;;;;4.60;3.77;;;;;;;9.47;67.99;153792.13;5036743;28;20532;-86
2023/03/17 07:50:37;;;;;;;5.43;3.17;;;;;;;9.53;67.01;153807.63;5005075;28;20514;-85
2023/03/17 07:53:04;;;;;;;3.83;3.40;;;;;;;9.65;65.91;153838.72;5023039;28;20459;-85
2023/03/17 07:55:31;;;;;;;4.30;3.40;;;;;;;9.74;63.30;153861.97;5021065;28;20539;-86
2023/03/17 07:57:58;;;;;;;7.53;3.83;;;;;;;9.88;64.82;153895.59;5023625;28;20452;-86
2023/03/17 08:00:26;;;;;;;3.60;3.00;;;;;;;10.05;65.38;153940.94;5037634;28;20452;-85
2023/03/17 08:02:53;;;;;;;4.17;3.20;;;;;;;10.34;65.41;154014.75;5037141;28;20534;-86
2023/03/17 08:05:21;;;;;;;3.77;3.33;;;;;;;10.48;63.79;154051.03;5036368;28;20802;-85
2023/03/17 08:07:48;;;;;;;4.50;4.10;;;;;;;10.66;63.72;154096.31;5037473;28;21237;-86
2023/03/17 08:10:15;;;;;;;4.40;3.57;;;;;;;10.75;63.08;154120.91;5066909;28;20479;-85
2023/03/17 08:12:43;;;;;;;3.80;3.10;;;;;;;10.96;64.00;154175.31;5060673;28;20467;-85
2023/03/17 08:15:11;;;;;;;6.47;3.30;;;;;;;11.16;62.97;154224.53;5059667;28;20840;-85
2023/03/17 08:17:38;;;;;;;4.20;3.27;;;;;;;11.24;59.87;154246.56;5044554;28;20467;-84
2023/03/17 08:20:07;;;;;;;3.67;3.23;;;;;;;11.34;60.27;154272.47;5057800;28;20494;-86
2023/03/17 08:22:35;;;;;;;4.03;3.23;;;;;;;11.49;63.52;154311.31;5038547;28;20977;-87
2023/03/17 08:25:02;;;;;;;4.03;3.60;;;;;;;11.51;58.59;154315.25;5056789;28;20528;-86
2023/03/17 08:27:29;;;;;;;4.90;3.80;;;;;;;11.65;61.14;154350.22;5060710;28;20889;-88
2023/03/17 08:29:56;;;;;;;4.10;3.10;;;;;;;11.55;62.15;154326.88;5055189;28;20466;-86
2023/03/17 08:32:23;;;;;;;3.70;2.97;;;;;;;11.44;61.20;154298.38;5041077;28;20475;-86
2023/03/17 08:34:53;;;;;;;13.17;3.27;;;;;;;11.36;61.33;154276.34;5057860;28;20456;-86
2023/03/17 08:37:20;;;;;;;4.10;3.23;;;;;;;11.28;60.44;154255.66;5040167;28;20445;-86
2023/03/17 08:39:48;;;;;;;3.47;2.97;;;;;;;11.23;62.13;154242.66;5043186;28;20988;-87
2023/03/17 08:42:15;;;;;;;6.23;3.30;;;;;;;11.23;62.36;154242.66;5055096;28;20951;-87
2023/03/17 08:44:42;;;;;;;5.97;3.50;;;;;;;11.25;61.04;154247.88;5038959;28;20883;-86
2023/03/17 08:47:09;;;;;;;2.80;2.50;;;;;;;11.32;60.44;154266.00;5054587;28;20515;-86
2023/03/17 08:49:36;;;;;;;4.13;3.07;;;;;;;11.35;57.51;154273.78;5054414;28;20448;-87
2023/03/17 08:52:03;;;;;;;2.93;2.60;;;;;;;11.36;63.63;154276.34;5053106;28;20475;-86
2023/03/17 08:54:29;;;;;;;6.40;3.13;;;;;;;11.37;59.27;154280.25;5054424;28;20446;-87
2023/03/17 08:57:00;;;;;;;3.77;2.50;;;;;;;11.34;60.18;154271.16;5056037;28;20458;-86
2023/03/17 08:59:27;;;;;;;5.90;3.00;;;;;;;11.36;61.05;154276.34;5023517;28;20783;-86
2023/03/17 09:01:54;;;;;;;2.40;2.10;;;;;;;11.38;57.90;154281.56;5038604;28;20796;-86
2023/03/17 09:04:22;;;;;;;4.53;3.50;;;;;;;11.45;57.38;154299.69;5054344;28;20491;-85
2023/03/17 09:06:49;;;;;;;3.40;2.90;;;;;;;11.52;57.38;154317.81;5040857;28;20772;-86
2023/03/17 09:09:16;;;;;;;3.00;2.37;;;;;;;11.51;61.64;154315.25;5047679;28;21008;-86
2023/03/17 09:11:43;;;;;;;5.93;2.43;;;;;;;11.40;60.48;154288.03;5061077;28;20965;-86
2023/03/17 09:14:11;;;;;;;4.27;2.67;;;;;;;11.40;59.08;154286.72;5059092;28;20464;-86
2023/03/17 09:16:38;;;;;;;2.73;2.37;;;;;;;11.51;55.64;154315.25;5061411;28;20869;-86
2023/03/17 09:19:04;;;;;;;3.53;2.37;;;;;;;11.68;57.99;154359.28;5061173;28;20791;-86
2023/03/17 09:21:31;;;;;;;3.47;2.47;;;;;;;11.72;56.18;154368.41;5059007;28;20493;-86
2023/03/17 09:23:58;;;;;;;2.33;2.00;;;;;;;11.82;55.02;154395.63;5047814;28;20809;-85
2023/03/17 09:26:25;;;;;;;3.10;2.10;;;;;;;11.92;52.32;154421.53;5056309;28;20482;-86
2023/03/17 09:28:52;;;;;;;5.17;2.60;;;;;;;12.16;51.17;154483.78;5061053;28;20462;-86
2023/03/17 09:31:20;;;;;;;3.67;2.20;;;;;;;12.23;54.60;154499.34;5075317;28;20550;-86
2023/03/17 09:33:47;;;;;;;2.77;2.47;;;;;;;12.38;53.11;154539.53;5059978;28;20492;-86
2023/03/17 09:36:14;;;;;;;3.60;2.60;;;;;;;12.40;53.99;154544.69;5061731;28;21507;-86
2023/03/17 09:38:40;;;;;;;2.07;1.87;;;;;;;12.45;50.92;154556.34;5059432;28;20454;-86
2023/03/17 09:41:23;;;;;;;3.37;2.20;;;;;;;12.40;52.91;154543.41;5058385;28;20440;-87
2023/03/17 09:43:55;;;;;;;3.00;1.93;;;;;;;12.28;52.00;154512.31;5060561;28;20454;-86
2023/03/17 09:46:33;;;;;;;3.30;1.97;;;;;;;12.35;51.81;154530.44;5057528;28;20438;-86
2023/03/17 09:49:02;;;;;;;3.90;2.20;;;;;;;12.40;51.77;154544.69;5058173;28;20446;-86
2023/03/17 09:51:30;;;;;;;2.67;1.90;;;;;;;12.42;52.49;154549.88;5028253;28;20452;-86
2023/03/17 09:53:59;;;;;;;2.33;2.00;;;;;;;12.48;51.06;154564.16;5056699;28;20466;-86
2023/03/17 09:56:27;;;;;;;2.87;2.20;;;;;;;12.71;49.74;154623.78;5039100;28;20548;-87
2023/03/17 09:58:56;;;;;;;3.37;2.23;;;;;;;12.82;49.82;154652.31;5062203;28;20486;-86
2023/03/17 10:01:23;;;;;;;3.50;1.90;;;;;;;12.82;50.36;154653.63;5060674;28;20851;-86
2023/03/17 10:03:52;;;;;;;4.73;2.30;;;;;;;12.92;56.88;154678.25;5055271;28;20460;-86
2023/03/17 10:06:37;;;;;;;2.40;2.03;;;;;;;12.88;50.17;154666.59;5041790;28;21010;-86
2023/03/17 10:09:17;;;;;;;3.30;2.20;;;;;;;13.17;47.25;154743.22;5036082;28;20579;-86
2023/03/17 10:11:46;;;;;;;3.20;1.90;;;;;;;13.37;47.99;154795.09;5054753;28;20905;-85
2023/03/17 10:14:30;;;;;;;3.40;2.00;;;;;;;13.38;46.96;154796.38;5055507;28;20447;-86
2023/03/17 10:17:01;;;;;;;4.37;2.57;;;;;;;13.37;48.11;154793.78;5019794;28;20452;-86
2023/03/17 10:19:32;;;;;;;2.60;1.80;;;;;;;13.45;47.21;154813.28;5054222;28;20558;-86
2023/03/17 10:22:03;;;;;;;2.00;1.60;;;;;;;13.36;49.00;154791.22;5052876;28;20444;-86
2023/03/17 10:24:31;;;;;;;2.13;1.90;;;;;;;13.39;48.96;154800.31;5052939;28;20452;-86
2023/03/17 10:27:01;;;;;;;2.63;1.50;;;;;;;13.46;49.60;154815.84;5038511;28;20501;-86
2023/03/17 10:29:30;;;;;;;2.60;1.67;;;;;;;13.40;49.56;154802.88;5040046;28;20456;-87
2023/03/17 10:31:56;;;;;;;2.90;1.80;;;;;;;13.57;49.14;154844.41;5053987;28;21175;-86
2023/03/17 10:34:26;;;;;;;2.70;1.90;;;;;;;13.50;48.78;154826.25;5055667;28;20483;-86
2023/03/17 10:36:58;;;;;;;2.10;1.73;;;;;;;13.46;50.47;154817.16;5053335;28;20459;-87
2023/03/17 10:39:25;;;;;;;2.80;1.70;;;;;;;13.57;48.76;154844.41;5053518;28;20823;-86
2023/03/17 10:41:55;;;;;;;3.00;1.80;;;;;;;13.65;48.15;154866.50;5036401;28;20451;-86
2023/03/17 10:44:29;;;;;;;8.63;1.63;;;;;;;13.91;48.41;154932.66;5040807;28;20450;-86
2023/03/17 10:46:56;;;;;;;3.00;1.73;;;;;;;14.11;48.86;154984.59;5054647;28;20527;-86
2023/03/17 10:49:25;;;;;;;2.83;1.70;;;;;;;14.39;45.43;155057.38;5056288;28;20451;-86
2023/03/17 10:51:54;;;;;;;2.50;1.73;;;;;;;14.48;46.25;155080.72;5052088;28;20472;-86
2023/03/17 10:54:24;;;;;;;1.70;1.40;;;;;;;14.46;45.92;155074.25;5051097;28;20452;-87
2023/03/17 10:56:58;;;;;;;2.27;1.77;;;;;;;14.52;46.07;155089.84;5055131;28;20526;-86
2023/03/17 10:59:27;;;;;;;1.93;1.40;;;;;;;14.57;45.51;155102.81;5058070;28;20956;-86
2023/03/17 11:01:57;;;;;;;5.73;2.00;;;;;;;14.71;45.01;155137.91;5041269;28;20463;-87
2023/03/17 11:04:29;;;;;;;2.30;1.70;;;;;;;14.78;44.92;155156.06;5053394;28;20475;-86
2023/03/17 11:06:57;;;;;;;2.27;2.07;;;;;;;14.90;44.80;155188.56;5042356;28;20456;-86
2023/03/17 11:09:27;;;;;;;3.03;2.73;;;;;;;14.91;45.64;155189.84;5058830;28;20473;-86
2023/03/17 11:12:04;;;;;;;2.27;2.00;;;;;;;14.89;46.19;155185.97;5031349;28;20490;-86
2023/03/17 11:14:30;;;;;;;3.47;2.10;;;;;;;15.01;45.71;155215.88;5033642;28;20450;-86
2023/03/17 11:17:01;;;;;;;2.87;2.00;;;;;;;15.00;45.77;155213.25;5033613;28;20454;-87
2023/03/17 11:19:35;;;;;;;7.03;2.90;;;;;;;15.00;46.93;155213.25;5024501;28;20938;-86
2023/03/17 11:22:08;;;;;;;3.00;2.40;;;;;;;14.99;46.52;155210.63;5034324;28;20441;-86
2023/03/17 11:24:41;;;;;;;2.17;1.97;;;;;;;14.96;46.49;155202.81;5016097;28;20457;-87
2023/03/17 11:27:12;;;;;;;3.13;2.67;;;;;;;14.98;47.38;155209.38;5020557;28;20440;-87
2023/03/17 11:29:50;;;;;;;3.07;2.67;;;;;;;14.99;47.01;155211.94;5020860;28;20461;-87
2023/03/17 11:32:26;;;;;;;2.57;2.10;;;;;;;14.86;48.04;155176.84;5019485;28;20559;-87
2023/03/17 11:35:03;;;;;;;2.53;2.10;;;;;;;14.91;47.43;155191.16;5035001;28;20466;-87
2023/03/17 11:37:44;;;;;;;4.17;2.07;;;;;;;15.02;46.78;155218.44;5033304;28;20874;-87